createdAt,value
2022-10-01T00:03:20.586Z,100287.81
2022-10-01T00:08:24.803Z,100278.66
2022-10-01T00:13:27.579Z,100248.38
2022-10-01T00:18:30.962Z,100242.59
2022-10-01T00:23:35.312Z,100056.50
2022-10-01T00:28:38.085Z,100152.09
2022-10-01T00:33:40.952Z,100189.19
2022-10-01T00:38:46.309Z,100122.16
2022-10-01T00:43:53.596Z,99791.59
2022-10-01T00:49:01.492Z,100049.53
2022-10-01T00:54:10.905Z,99950.88
2022-10-01T00:59:16.217Z,99947.88
2022-10-01T01:04:19.214Z,100136.72
2022-10-01T01:09:26.305Z,100136.03
2022-10-01T01:14:38.682Z,100114.59
2022-10-01T01:19:56.766Z,100103.59
2022-10-01T01:25:06.294Z,100077.91
2022-10-01T01:30:12.546Z,99936.06
2022-10-01T01:35:22.449Z,99853.19
2022-10-01T01:40:26.636Z,100058.28
2022-10-01T01:45:31.662Z,100087.25
2022-10-01T01:50:43.347Z,99801.88
2022-10-01T01:55:49.880Z,99996.88
2022-10-01T02:00:53.897Z,100082.69
2022-10-01T02:06:04.243Z,100086.19
2022-10-01T02:11:22.523Z,100084.16
2022-10-01T02:16:34.474Z,100076.22
2022-10-01T02:21:41.935Z,100063.22
2022-10-01T02:26:51.588Z,99977.03
2022-10-01T02:31:57.773Z,100016.56
2022-10-01T02:37:03.964Z,99998.47
2022-10-01T02:42:09.468Z,99764.75
2022-10-01T02:47:19.491Z,99984.38
2022-10-01T02:52:29.961Z,99865.50
2022-10-01T02:57:33.036Z,99839.06
2022-10-01T03:02:37.124Z,99990.31
2022-10-01T03:07:40.795Z,99969.91
2022-10-01T03:12:46.322Z,99971.84
2022-10-01T03:17:53.374Z,99954.19
2022-10-01T03:22:56.425Z,99960.06
2022-10-01T03:27:59.514Z,99617.72
2022-10-01T03:33:03.598Z,99928.66
2022-10-01T03:38:08.145Z,99822.56
2022-10-01T03:43:10.798Z,99805.50
2022-10-01T03:48:15.025Z,99898.59
2022-10-01T03:53:18.414Z,99889.00
2022-10-01T03:58:21.269Z,99921.00
2022-10-01T04:03:25.393Z,99916.97
2022-10-01T04:08:28.156Z,99919.13
2022-10-01T04:13:31.226Z,99843.44
2022-10-01T04:18:35.328Z,99909.72
2022-10-01T04:23:37.985Z,99902.41
2022-10-01T04:28:40.657Z,99849.81
2022-10-01T04:33:45.130Z,99920.31
2022-10-01T04:38:48.273Z,99920.56
2022-10-01T04:43:51.102Z,99877.31
2022-10-01T04:48:55.167Z,99908.88
2022-10-01T04:53:58.224Z,99916.22
2022-10-01T04:59:03.392Z,99905.94
2022-10-01T05:04:08.869Z,99697.59
2022-10-01T05:09:11.659Z,99811.88
2022-10-01T05:14:16.252Z,99918.00
2022-10-01T05:19:21.709Z,99916.34
2022-10-01T05:24:25.012Z,99886.88
2022-10-01T05:29:27.800Z,99731.50
2022-10-01T05:34:37.630Z,99838.91
2022-10-01T05:39:40.281Z,99926.69
2022-10-01T05:44:46.134Z,99762.38
2022-10-01T05:49:50.277Z,99928.72
2022-10-01T05:54:52.965Z,99947.22
2022-10-01T05:59:57.323Z,99949.38
2022-10-01T06:05:01.832Z,99902.09
2022-10-01T06:10:05.094Z,99920.56
2022-10-01T06:15:08.942Z,99944.47
2022-10-01T06:20:16.000Z,99899.88
2022-10-01T06:25:19.115Z,99960.66
2022-10-01T06:30:26.965Z,99903.94
2022-10-01T06:35:31.169Z,99921.06
2022-10-01T06:40:33.864Z,99977.50
2022-10-01T06:45:39.278Z,99802.44
2022-10-01T06:50:45.078Z,99894.88
2022-10-01T06:55:49.790Z,99988.69
2022-10-01T07:00:52.745Z,99980.25
2022-10-01T07:06:02.465Z,99990.38
2022-10-01T07:11:08.606Z,99994.03
2022-10-01T07:16:11.377Z,99822.03
2022-10-01T07:21:15.581Z,99935.72
2022-10-01T07:26:19.207Z,100023.03
2022-10-01T07:31:24.153Z,100013.69
2022-10-01T07:36:31.322Z,100025.88
2022-10-01T07:41:34.283Z,99736.81
2022-10-01T07:46:37.454Z,100015.03
2022-10-01T07:51:43.418Z,99920.66
2022-10-01T07:56:49.150Z,99799.50
2022-10-01T08:01:55.792Z,100045.19
2022-10-01T08:07:10.070Z,99630.72
2022-10-01T08:12:22.102Z,100050.28
2022-10-01T08:17:29.223Z,99907.50
2022-10-01T08:22:41.919Z,99749.53
2022-10-01T08:27:45.178Z,99647.53
2022-10-01T08:32:50.649Z,99968.28
2022-10-01T08:37:56.700Z,99709.25
2022-10-01T08:43:06.219Z,99809.28
2022-10-01T08:48:16.885Z,100094.56
2022-10-01T08:53:30.092Z,100094.56
2022-10-01T08:58:40.825Z,100028.88
2022-10-01T09:03:45.226Z,99827.03
2022-10-01T09:09:05.776Z,100104.38
2022-10-01T09:14:21.731Z,100034.16
2022-10-01T09:19:44.185Z,100116.00
2022-10-01T09:24:59.422Z,100116.72
2022-10-01T09:30:05.519Z,100134.06
2022-10-01T09:35:21.970Z,100139.81
2022-10-01T09:40:35.820Z,100119.50
2022-10-01T09:45:39.908Z,100083.59
2022-10-01T09:50:50.372Z,100139.00
2022-10-01T09:56:10.345Z,99929.19
2022-10-01T10:01:22.292Z,100142.06
2022-10-01T10:06:31.143Z,100112.78
2022-10-01T10:11:35.791Z,99980.59
2022-10-01T10:16:47.257Z,100162.34
2022-10-01T10:21:52.109Z,100160.81
2022-10-01T10:27:02.877Z,100168.91
2022-10-01T10:32:15.753Z,100188.00
2022-10-01T10:37:22.799Z,100194.19
2022-10-01T10:42:28.737Z,100196.63
2022-10-01T10:47:33.124Z,100186.47
2022-10-01T10:52:40.797Z,100199.66
2022-10-01T10:57:47.967Z,100122.84
2022-10-01T11:02:55.607Z,100143.53
2022-10-01T11:08:01.420Z,100146.81
2022-10-01T11:13:27.046Z,100146.28
2022-10-01T11:18:47.536Z,100145.59
2022-10-01T11:24:13.048Z,100138.69
2022-10-01T11:29:32.841Z,100140.22
2022-10-01T11:35:05.230Z,100187.28
2022-10-01T11:40:16.602Z,100150.72
2022-10-01T11:45:25.876Z,100014.03
2022-10-01T11:50:35.107Z,100240.53
2022-10-01T11:56:02.426Z,100102.25
2022-10-01T12:01:13.181Z,100240.59
2022-10-01T12:06:21.009Z,100222.44
2022-10-01T12:11:32.764Z,100163.97
2022-10-01T12:16:45.137Z,100224.50
2022-10-01T12:21:52.920Z,100268.06
2022-10-01T12:27:10.273Z,100100.94
2022-10-01T12:32:23.525Z,100294.38
2022-10-01T12:37:39.800Z,100290.13
2022-10-01T12:43:03.231Z,100301.03
2022-10-01T12:48:17.255Z,100261.47
2022-10-01T12:53:26.653Z,100087.09
2022-10-01T12:58:45.633Z,100302.56
2022-10-01T13:04:23.648Z,100301.09
2022-10-01T13:09:34.621Z,100348.25
2022-10-01T13:14:44.448Z,100320.38
2022-10-01T13:19:54.411Z,100302.78
2022-10-01T13:25:06.589Z,100380.47
2022-10-01T13:30:19.329Z,100378.16
2022-10-01T13:35:29.501Z,100316.56
2022-10-01T13:40:36.705Z,100385.06
2022-10-01T13:45:43.893Z,100323.66
2022-10-01T13:51:02.977Z,100393.50
2022-10-01T13:56:07.003Z,100340.91
2022-10-01T14:01:37.772Z,99980.88
2022-10-01T14:06:49.805Z,100386.06
2022-10-01T14:12:33.543Z,100202.44
2022-10-01T14:17:39.370Z,100251.69
2022-10-01T14:23:04.089Z,100328.63
2022-10-01T14:28:19.767Z,100259.78
2022-10-01T14:33:42.069Z,100469.91
2022-10-01T14:38:46.439Z,100480.72
2022-10-01T14:43:49.253Z,100430.34
2022-10-01T14:48:59.157Z,100493.94
2022-10-01T14:54:03.750Z,100404.13
2022-10-01T14:59:08.609Z,100494.47
2022-10-01T15:04:15.625Z,100414.88
2022-10-01T15:09:23.979Z,100423.78
2022-10-01T15:14:27.894Z,100525.09
2022-10-01T15:19:31.739Z,100532.13
2022-10-01T15:24:41.256Z,100527.00
2022-10-01T15:29:44.600Z,100541.94
2022-10-01T15:34:51.124Z,100531.00
2022-10-01T15:39:56.230Z,100560.09
2022-10-01T15:45:21.353Z,100568.75
2022-10-01T15:50:26.464Z,100566.50
2022-10-01T15:55:38.947Z,100200.50
2022-10-01T16:00:57.779Z,100483.56
2022-10-01T16:06:03.169Z,100535.81
2022-10-01T16:11:18.641Z,100610.81
2022-10-01T16:16:27.138Z,100613.53
2022-10-01T16:21:30.006Z,100572.28
2022-10-01T16:26:40.293Z,100635.50
2022-10-01T16:31:45.225Z,100645.97
2022-10-01T16:36:48.186Z,100617.72
2022-10-01T16:42:11.959Z,100428.84
2022-10-01T16:47:16.007Z,100571.38
2022-10-01T16:52:19.032Z,100668.94
2022-10-01T16:57:23.100Z,100676.09
2022-10-01T17:02:26.156Z,100684.69
2022-10-01T17:07:29.074Z,100692.72
2022-10-01T17:12:33.021Z,100698.31
2022-10-01T17:17:35.633Z,100693.41
2022-10-01T17:22:39.330Z,100733.47
2022-10-01T17:27:45.496Z,100619.50
2022-10-01T17:32:48.315Z,100647.03
2022-10-01T17:37:50.930Z,100717.50
2022-10-01T17:42:55.095Z,100702.53
2022-10-01T17:47:57.749Z,100544.41
2022-10-01T17:53:02.157Z,100707.97
2022-10-01T17:58:06.732Z,100562.34
2022-10-01T18:03:09.761Z,100787.63
2022-10-01T18:08:12.820Z,100777.44
2022-10-01T18:13:20.630Z,100670.75
2022-10-01T18:19:48.617Z,100829.72
2022-10-01T18:23:46.971Z,100628.56
2022-10-01T18:28:51.584Z,100854.63
2022-10-01T18:33:56.928Z,100853.25
2022-10-01T18:39:08.331Z,100800.63
2022-10-01T18:44:19.971Z,100805.16
2022-10-01T18:49:45.232Z,100830.66
2022-10-01T18:55:02.979Z,100860.94
2022-10-01T19:00:13.874Z,100845.50
2022-10-01T19:06:00.625Z,100821.06
2022-10-01T19:11:15.837Z,100706.84
2022-10-01T19:16:37.584Z,100921.44
2022-10-01T19:21:49.187Z,100926.16
2022-10-01T19:26:58.933Z,100933.56
2022-10-01T19:32:08.396Z,100913.03
2022-10-01T19:37:16.823Z,100935.16
2022-10-01T19:42:24.590Z,100900.56
2022-10-01T19:47:37.710Z,100902.13
2022-10-01T19:52:42.905Z,100959.50
2022-10-01T19:57:47.137Z,100889.84
2022-10-01T20:02:57.993Z,100920.06
2022-10-01T20:08:07.377Z,100944.88
2022-10-01T20:13:28.212Z,100977.59
2022-10-01T20:18:38.341Z,100932.13
2022-10-01T20:23:50.074Z,100940.91
2022-10-01T20:29:09.227Z,100933.38
2022-10-01T20:34:20.467Z,101014.84
2022-10-01T20:39:29.894Z,101014.13
2022-10-01T20:44:37.061Z,101011.31
2022-10-01T20:49:47.395Z,100998.19
2022-10-01T20:54:52.831Z,100908.16
2022-10-01T20:59:58.051Z,101017.66
2022-10-01T21:05:07.708Z,101010.31
2022-10-01T21:10:25.247Z,100933.78
2022-10-01T21:15:37.500Z,100971.81
2022-10-01T21:20:48.559Z,100862.75
2022-10-01T21:26:01.185Z,101042.44
2022-10-01T21:31:18.753Z,101051.69
2022-10-01T21:36:36.234Z,101023.50
2022-10-01T21:41:57.314Z,100640.16
2022-10-01T21:47:08.773Z,100889.94
2022-10-01T21:52:24.396Z,100929.09
2022-10-01T21:57:43.352Z,101082.22
2022-10-01T22:02:59.996Z,101066.06
2022-10-01T22:08:18.597Z,100963.25
2022-10-01T22:13:28.460Z,101057.41
2022-10-01T22:18:37.620Z,101100.84
2022-10-01T22:24:18.976Z,101105.44
2022-10-01T22:43:52.862Z,101119.22
2022-10-01T22:49:04.669Z,101040.31
2022-10-01T22:54:26.413Z,100971.22
2022-10-01T22:59:41.010Z,100986.81
2022-10-01T23:04:56.795Z,101110.09
2022-10-01T23:10:18.310Z,100881.88
2022-10-01T23:15:33.345Z,100893.31
2022-10-01T23:20:43.737Z,100968.78
2022-10-01T23:26:06.775Z,101120.31
2022-10-01T23:31:25.976Z,101057.94
2022-10-01T23:36:36.940Z,101139.00
2022-10-01T23:41:46.189Z,101043.19
2022-10-01T23:46:55.039Z,101166.50
2022-10-01T23:52:11.619Z,100976.94
2022-10-01T23:57:21.542Z,100878.97
